Time;durP1;ratioP1;P1;durP2;ratioP2;P2;SDS_P1;SDS_P2;PMS_P1;PMS_P2;Temp;Humidity;BMP_temperature;BMP_pressure;BME280_temperature;BME280_humidity;BME280_pressure;Samples;Min_cycle;Max_cycle;Signal;HPM_P1;HPM_P2
2022/07/27 00:00:19;;;;;;;;;;;31.70;42.90;;;;;;845166;23;814;-86
2022/07/27 00:00:39;;;;;;;;;;;31.70;42.70;;;;;;848599;23;1208;-88
2022/07/27 00:01:00;;;;;;;;;;;31.70;43.60;;;;;;848281;23;1275;-87
2022/07/27 00:01:20;;;;;;;;;;;31.60;43.10;;;;;;840976;23;1235;-88
2022/07/27 00:01:41;;;;;;;;;;;31.60;42.50;;;;;;845241;23;798;-88
2022/07/27 00:02:02;;;;;;;;;;;31.70;46.00;;;;;;844630;23;1200;-88
2022/07/27 00:02:22;;;;;;;;;;;31.70;43.70;;;;;;840093;23;1243;-87
2022/07/27 00:02:43;;;;;;;;;;;31.60;45.00;;;;;;833148;23;1305;-86
2022/07/27 00:03:03;;;;;;;;;;;31.70;43.60;;;;;;833063;23;1255;-87
2022/07/27 00:03:24;;;;;;;;;;;31.70;44.70;;;;;;836547;23;1299;-87
2022/07/27 00:03:45;;;;;;;;;;;31.70;45.60;;;;;;832658;23;1118;-88
2022/07/27 00:04:05;;;;;;;;;;;31.70;43.90;;;;;;833025;23;1285;-85
2022/07/27 00:04:26;;;;;;;;;;;31.60;44.00;;;;;;836002;23;1440;-88
2022/07/27 00:04:47;;;;;;;;;;;29.70;43.90;;;;;;836618;23;1259;-88
2022/07/27 00:05:07;;;;;;;;;;;31.60;44.70;;;;;;833002;23;1364;-87
2022/07/27 00:05:28;;;;;;;;;;;31.60;42.80;;;;;;837298;23;1312;-86
2022/07/27 00:05:49;;;;;;;;;;;31.60;43.60;;;;;;840559;23;1223;-86
2022/07/27 00:06:09;;;;;;;;;;;31.70;43.00;;;;;;836905;23;1352;-86
2022/07/27 00:06:30;;;;;;;;;;;31.70;42.70;;;;;;840613;23;1221;-88
2022/07/27 00:06:50;;;;;;;;;;;31.70;42.60;;;;;;844088;23;1348;-87
2022/07/27 00:07:11;;;;;;;;;;;31.70;43.10;;;;;;840465;23;1156;-90
2022/07/27 00:07:31;;;;;;;;;;;31.70;44.60;;;;;;836989;23;1234;-88
2022/07/27 00:07:52;;;;;;;;;;;32.40;49.00;;;;;;840198;23;1259;-91
2022/07/27 00:08:13;;;;;;;;;;;31.60;47.60;;;;;;840303;23;1429;-84
2022/07/27 00:08:34;;;;;;;;;;;31.70;44.00;;;;;;837019;23;774;-84
2022/07/27 00:08:54;;;;;;;;;;;31.60;42.80;;;;;;840996;23;1317;-85
2022/07/27 00:09:17;;;;;;;;;;;31.90;44.60;;;;;;841004;23;1486;-89
2022/07/27 00:09:37;;;;;;;;;;;31.60;41.30;;;;;;841485;23;1216;-87
2022/07/27 00:09:58;;;;;;;;;;;31.70;43.70;;;;;;844953;23;794;-87
2022/07/27 00:10:19;;;;;;;;;;;31.70;43.10;;;;;;840555;23;1189;-86
2022/07/27 00:10:39;;;;;;;;;;;31.70;42.50;;;;;;836712;23;1214;-87
2022/07/27 00:11:00;;;;;;;;;;;31.60;45.70;;;;;;837779;23;1425;-87
2022/07/27 00:11:21;;;;;;;;;;;31.90;45.40;;;;;;841147;23;758;-90
2022/07/27 00:11:41;;;;;;;;;;;31.70;48.50;;;;;;840846;23;1222;-93
2022/07/27 00:12:02;;;;;;;;;;;31.60;45.50;;;;;;837197;23;1279;-87
2022/07/27 00:12:22;;;;;;;;;;;31.60;44.80;;;;;;841068;23;1162;-88
2022/07/27 00:12:43;;;;;;;;;;;31.60;46.30;;;;;;844134;23;1470;-88
2022/07/27 00:13:04;;;;;;;;;;;31.60;45.00;;;;;;844713;23;1397;-90
2022/07/27 00:13:25;;;;;;;;;;;31.70;43.10;;;;;;845419;23;762;-90
2022/07/27 00:13:46;;;;;;;;;;;31.60;43.40;;;;;;844734;23;1157;-87
2022/07/27 00:14:07;;;;;;;;;;;31.60;46.50;;;;;;845327;23;1184;-87
2022/07/27 00:14:27;;;;;;;;;;;31.60;44.30;;;;;;843943;23;1397;-88
2022/07/27 00:14:48;;;;;;;;;;;31.60;44.20;;;;;;837463;23;1375;-88
2022/07/27 00:15:09;;;;;;;;;;;31.70;41.50;;;;;;840845;23;750;-94
2022/07/27 00:15:30;;;;;;;;;;;28.80;43.50;;;;;;836924;23;1292;-93
2022/07/27 00:15:50;;;;;;;;;;;31.70;49.10;;;;;;833204;23;1115;-89
2022/07/27 00:16:11;;;;;;;;;;;31.60;44.20;;;;;;833134;23;1249;-86
2022/07/27 00:16:31;;;;;;;;;;;31.60;43.90;;;;;;837112;23;1388;-89
2022/07/27 00:16:52;;;;;;;;;;;31.70;47.10;;;;;;836517;23;1882;-89
2022/07/27 00:17:12;;;;;;;;;;;31.70;45.30;;;;;;837148;23;1395;-88
2022/07/27 00:17:33;;;;;;;;;;;31.70;46.50;;;;;;841089;23;1239;-86
2022/07/27 00:17:55;;;;;;;;;;;31.90;44.60;;;;;;841039;23;1086;-88
2022/07/27 00:18:16;;;;;;;;;;;31.70;48.50;;;;;;839783;23;1422;-88
2022/07/27 00:18:36;;;;;;;;;;;31.80;48.20;;;;;;841406;23;1198;-86
2022/07/27 00:18:57;;;;;;;;;;;31.70;48.70;;;;;;844862;23;837;-88
2022/07/27 00:19:18;;;;;;;;;;;31.70;47.70;;;;;;840502;23;1286;-86
2022/07/27 00:19:45;;;;;;;;;;;32.40;47.80;;;;;;841406;23;904;-87
2022/07/27 00:20:06;;;;;;;;;;;31.90;42.60;;;;;;842530;23;1110;-87
2022/07/27 00:20:27;;;;;;;;;;;31.70;43.40;;;;;;840477;23;1246;-87
2022/07/27 00:20:48;;;;;;;;;;;31.90;43.60;;;;;;836661;23;1074;-87
2022/07/27 00:21:09;;;;;;;;;;;31.70;46.00;;;;;;838695;23;1201;-88
2022/07/27 00:21:29;;;;;;;;;;;31.80;45.60;;;;;;836674;23;1101;-87
2022/07/27 00:21:50;;;;;;;;;;;31.70;48.00;;;;;;837341;23;1251;-88
2022/07/27 00:22:11;;;;;;;;;;;31.70;49.40;;;;;;837293;23;1127;-87
2022/07/27 00:22:31;;;;;;;;;;;32.00;48.60;;;;;;841132;23;1345;-87
2022/07/27 00:22:52;;;;;;;;;;;31.70;48.20;;;;;;840198;23;1322;-87
2022/07/27 00:23:13;;;;;;;;;;;30.30;43.20;;;;;;836660;23;1233;-87
2022/07/27 00:23:33;;;;;;;;;;;31.90;50.10;;;;;;836881;23;1196;-86
2022/07/27 00:23:54;;;;;;;;;;;31.70;46.20;;;;;;840954;23;1444;-87
2022/07/27 00:24:14;;;;;;;;;;;31.80;47.80;;;;;;841153;23;1211;-88
2022/07/27 00:24:35;;;;;;;;;;;31.90;48.80;;;;;;840936;23;1371;-87
2022/07/27 00:24:56;;;;;;;;;;;31.80;46.60;;;;;;844587;23;1209;-88
2022/07/27 00:25:16;;;;;;;;;;;31.70;45.90;;;;;;840559;23;1214;-87
2022/07/27 00:25:37;;;;;;;;;;;31.70;47.10;;;;;;840307;23;809;-88
2022/07/27 00:25:57;;;;;;;;;;;31.80;46.50;;;;;;837029;23;1095;-87
2022/07/27 00:26:18;;;;;;;;;;;31.70;45.80;;;;;;837150;23;1170;-87
2022/07/27 00:26:38;;;;;;;;;;;31.70;46.40;;;;;;840980;23;775;-88
2022/07/27 00:26:59;;;;;;;;;;;32.00;46.90;;;;;;840900;23;1487;-86
2022/07/27 00:27:20;;;;;;;;;;;31.80;50.80;;;;;;840467;23;1228;-87
2022/07/27 00:27:40;;;;;;;;;;;31.90;47.90;;;;;;836553;23;1311;-87
2022/07/27 00:28:02;;;;;;;;;;;31.80;42.00;;;;;;836719;23;1311;-88
2022/07/27 00:28:22;;;;;;;;;;;31.80;43.80;;;;;;836681;23;1274;-87
2022/07/27 00:28:43;;;;;;;;;;;31.80;42.00;;;;;;836664;23;775;-88
2022/07/27 00:29:04;;;;;;;;;;;31.80;50.00;;;;;;837037;23;1327;-87
2022/07/27 00:29:24;;;;;;;;;;;31.70;49.80;;;;;;841155;23;1228;-88
2022/07/27 00:29:45;;;;;;;;;;;31.90;47.20;;;;;;841154;23;1275;-88
2022/07/27 00:30:05;;;;;;;;;;;32.00;49.30;;;;;;840556;23;1433;-89
2022/07/27 00:30:26;;;;;;;;;;;31.80;43.60;;;;;;840345;23;1329;-88
2022/07/27 00:30:47;;;;;;;;;;;31.80;47.70;;;;;;839932;23;1312;-87
2022/07/27 00:31:07;;;;;;;;;;;31.80;49.10;;;;;;832817;23;1306;-88
2022/07/27 00:31:28;;;;;;;;;;;31.80;48.20;;;;;;829067;23;1200;-87
2022/07/27 00:31:49;;;;;;;;;;;32.00;50.90;;;;;;833270;23;1231;-87
2022/07/27 00:32:09;;;;;;;;;;;31.80;42.80;;;;;;837126;23;1173;-87
2022/07/27 00:32:30;;;;;;;;;;;31.80;45.80;;;;;;840544;23;1248;-87
2022/07/27 00:32:51;;;;;;;;;;;31.90;49.60;;;;;;840190;23;1289;-89
2022/07/27 00:33:11;;;;;;;;;;;32.00;50.20;;;;;;833154;23;1348;-86
2022/07/27 00:33:32;;;;;;;;;;;31.80;51.30;;;;;;836608;23;1266;-86
2022/07/27 00:33:52;;;;;;;;;;;31.80;48.90;;;;;;837037;23;767;-86
2022/07/27 00:34:13;;;;;;;;;;;31.80;52.00;;;;;;841123;23;755;-86
2022/07/27 00:34:34;;;;;;;;;;;31.80;47.50;;;;;;844821;23;1349;-87
2022/07/27 00:34:54;;;;;;;;;;;31.90;49.40;;;;;;849586;23;771;-86
2022/07/27 00:35:15;;;;;;;;;;;30.30;52.30;;;;;;848629;23;1301;-85
2022/07/27 00:35:35;;;;;;;;;;;31.80;50.40;;;;;;844379;23;1376;-85
2022/07/27 00:35:56;;;;;;;;;;;31.90;52.80;;;;;;844658;23;775;-85
2022/07/27 00:36:17;;;;;;;;;;;31.90;53.30;;;;;;844677;23;797;-84
2022/07/27 00:36:37;;;;;;;;;;;31.90;52.80;;;;;;844582;23;1396;-87
2022/07/27 00:36:58;;;;;;;;;;;31.90;52.70;;;;;;844883;23;1881;-88
2022/07/27 00:37:19;;;;;;;;;;;31.90;54.50;;;;;;844522;23;1304;-85
2022/07/27 00:37:39;;;;;;;;;;;32.00;53.50;;;;;;844643;23;833;-89
2022/07/27 00:38:00;;;;;;;;;;;31.90;56.30;;;;;;844626;23;1303;-87
2022/07/27 00:38:20;;;;;;;;;;;31.90;55.60;;;;;;844665;23;866;-87
2022/07/27 00:38:41;;;;;;;;;;;31.90;54.30;;;;;;844483;23;1360;-86
2022/07/27 00:39:04;;;;;;;;;;;31.90;60.40;;;;;;844716;23;1333;-88
2022/07/27 00:39:25;;;;;;;;;;;32.10;52.30;;;;;;840515;23;1246;-87
2022/07/27 00:39:45;;;;;;;;;;;31.90;53.60;;;;;;841336;23;1372;-87
2022/07/27 00:40:07;;;;;;;;;;;31.90;54.90;;;;;;840552;23;1339;-87
2022/07/27 00:40:27;;;;;;;;;;;31.90;52.90;;;;;;840601;23;1209;-88
2022/07/27 00:40:48;;;;;;;;;;;31.90;56.50;;;;;;841331;23;1361;-88
2022/07/27 00:41:08;;;;;;;;;;;31.90;53.20;;;;;;841185;23;1120;-88
2022/07/27 00:41:30;;;;;;;;;;;30.30;54.30;;;;;;839869;23;1285;-87
2022/07/27 00:41:51;;;;;;;;;;;31.90;53.00;;;;;;833343;23;1336;-87
2022/07/27 00:42:11;;;;;;;;;;;31.90;53.20;;;;;;833383;23;1244;-86
2022/07/27 00:42:32;;;;;;;;;;;31.90;56.00;;;;;;836613;23;1153;-89
2022/07/27 00:42:53;;;;;;;;;;;31.90;51.90;;;;;;837341;23;1118;-85
2022/07/27 00:43:14;;;;;;;;;;;31.90;54.10;;;;;;837073;23;1459;-86
2022/07/27 00:43:49;;;;;;;;;;;31.90;51.70;;;;;;841247;23;842;-86
2022/07/27 00:44:11;;;;;;;;;;;32.00;52.80;;;;;;844018;23;1383;-84
2022/07/27 00:44:32;;;;;;;;;;;32.00;54.60;;;;;;840505;23;833;-85
2022/07/27 00:44:53;;;;;;;;;;;32.00;53.50;;;;;;836478;23;1283;-84
2022/07/27 00:45:14;;;;;;;;;;;32.00;53.30;;;;;;840421;23;807;-85
2022/07/27 00:45:34;;;;;;;;;;;32.00;52.90;;;;;;840636;23;794;-84
2022/07/27 00:45:55;;;;;;;;;;;32.00;54.30;;;;;;841416;23;763;-85
2022/07/27 00:46:16;;;;;;;;;;;31.90;53.10;;;;;;841158;23;1066;-85
2022/07/27 00:46:37;;;;;;;;;;;31.90;50.30;;;;;;840980;23;1107;-85
2022/07/27 00:46:57;;;;;;;;;;;32.00;50.60;;;;;;844675;23;790;-85
2022/07/27 00:47:18;;;;;;;;;;;32.00;50.60;;;;;;840431;23;1315;-85
2022/07/27 00:47:38;;;;;;;;;;;32.00;50.30;;;;;;840523;23;854;-85
2022/07/27 00:47:59;;;;;;;;;;;32.00;50.20;;;;;;836895;23;1379;-84
2022/07/27 00:48:19;;;;;;;;;;;31.90;50.00;;;;;;841073;23;1184;-85
2022/07/27 00:48:40;;;;;;;;;;;31.90;51.00;;;;;;844209;23;1143;-85
2022/07/27 00:49:00;;;;;;;;;;;31.90;48.10;;;;;;844179;23;1383;-84
2022/07/27 00:49:21;;;;;;;;;;;31.90;48.90;;;;;;844501;23;791;-84
2022/07/27 00:49:42;;;;;;;;;;;31.90;48.80;;;;;;844885;23;1090;-85
2022/07/27 00:50:03;;;;;;;;;;;31.90;47.90;;;;;;848624;23;873;-87
2022/07/27 00:50:23;;;;;;;;;;;31.90;47.80;;;;;;843878;23;1331;-84
2022/07/27 00:50:45;;;;;;;;;;;31.90;47.50;;;;;;844591;23;813;-86
2022/07/27 00:51:06;;;;;;;;;;;31.90;47.60;;;;;;840368;23;1369;-86
2022/07/27 00:51:26;;;;;;;;;;;31.90;47.40;;;;;;840320;23;1325;-86
2022/07/27 00:51:48;;;;;;;;;;;31.90;49.20;;;;;;840454;23;1267;-86
2022/07/27 00:52:08;;;;;;;;;;;31.90;47.00;;;;;;837380;23;1321;-85
2022/07/27 00:52:29;;;;;;;;;;;31.90;47.70;;;;;;840559;23;837;-86
2022/07/27 00:52:50;;;;;;;;;;;31.90;45.80;;;;;;841190;23;886;-85
2022/07/27 00:53:11;;;;;;;;;;;31.90;47.10;;;;;;840437;23;1211;-85
2022/07/27 00:53:32;;;;;;;;;;;31.90;46.20;;;;;;837127;23;1245;-85
2022/07/27 00:53:53;;;;;;;;;;;31.90;47.00;;;;;;836834;23;1229;-85
2022/07/27 00:54:13;;;;;;;;;;;31.90;46.30;;;;;;840492;23;1357;-86
2022/07/27 00:54:34;;;;;;;;;;;31.90;46.50;;;;;;840416;23;1314;-85
2022/07/27 00:54:54;;;;;;;;;;;31.90;46.20;;;;;;841188;23;850;-86
2022/07/27 00:55:15;;;;;;;;;;;31.90;46.00;;;;;;844541;23;842;-85
2022/07/27 00:55:38;;;;;;;;;;;31.90;46.10;;;;;;841098;23;1170;-84
2022/07/27 00:55:58;;;;;;;;;;;31.90;45.80;;;;;;840739;23;1170;-84
2022/07/27 00:56:19;;;;;;;;;;;31.90;45.70;;;;;;844844;23;849;-85
2022/07/27 00:56:40;;;;;;;;;;;31.90;45.80;;;;;;844839;23;762;-84
2022/07/27 00:57:01;;;;;;;;;;;31.80;45.00;;;;;;844387;23;1946;-84
2022/07/27 00:57:21;;;;;;;;;;;31.80;44.00;;;;;;841397;23;830;-83
2022/07/27 00:57:42;;;;;;;;;;;31.80;44.80;;;;;;845493;23;762;-84
2022/07/27 00:58:04;;;;;;;;;;;31.80;45.30;;;;;;845700;23;1296;-84
2022/07/27 00:58:26;;;;;;;;;;;31.90;45.20;;;;;;846320;23;814;-84
2022/07/27 00:58:48;;;;;;;;;;;31.90;44.80;;;;;;841920;23;1184;-85
2022/07/27 00:59:10;;;;;;;;;;;31.90;44.70;;;;;;843243;23;833;-84
2022/07/27 00:59:31;;;;;;;;;;;31.90;44.60;;;;;;842218;23;1471;-84
2022/07/27 00:59:52;;;;;;;;;;;31.80;44.80;;;;;;844124;23;996;-84
2022/07/27 01:00:12;;;;;;;;;;;31.90;44.90;;;;;;848179;23;1087;-85
2022/07/27 01:00:34;;;;;;;;;;;31.90;44.80;;;;;;848090;23;1377;-85
2022/07/27 01:00:55;;;;;;;;;;;31.80;44.30;;;;;;842297;23;1465;-85
2022/07/27 01:01:17;;;;;;;;;;;31.80;43.10;;;;;;840630;23;1224;-85
2022/07/27 01:01:38;;;;;;;;;;;31.80;44.20;;;;;;840485;23;1351;-83
2022/07/27 01:01:59;;;;;;;;;;;31.80;44.30;;;;;;840523;23;826;-83
2022/07/27 01:02:19;;;;;;;;;;;31.80;45.80;;;;;;840715;23;881;-85
2022/07/27 01:02:40;;;;;;;;;;;31.80;43.80;;;;;;841547;23;881;-83
2022/07/27 01:03:01;;;;;;;;;;;31.80;44.70;;;;;;845441;23;813;-84
2022/07/27 01:03:21;;;;;;;;;;;31.80;44.10;;;;;;845026;23;841;-85
2022/07/27 01:03:42;;;;;;;;;;;31.80;45.20;;;;;;843781;23;1213;-85
2022/07/27 01:04:03;;;;;;;;;;;31.80;44.20;;;;;;844630;23;790;-85
2022/07/27 01:04:23;;;;;;;;;;;31.80;43.90;;;;;;844532;23;1334;-84
2022/07/27 01:04:44;;;;;;;;;;;31.80;44.40;;;;;;844469;23;1341;-85
2022/07/27 01:05:04;;;;;;;;;;;31.80;44.60;;;;;;840765;23;1462;-87
2022/07/27 01:05:25;;;;;;;;;;;31.80;44.00;;;;;;840556;23;1269;-86
2022/07/27 01:05:46;;;;;;;;;;;31.80;44.10;;;;;;836513;23;1473;-86
2022/07/27 01:06:07;;;;;;;;;;;31.80;44.50;;;;;;832450;23;1444;-84
2022/07/27 01:06:29;;;;;;;;;;;31.80;44.10;;;;;;833231;23;822;-86
2022/07/27 01:06:50;;;;;;;;;;;31.70;43.60;;;;;;837496;23;992;-86
2022/07/27 01:07:10;;;;;;;;;;;31.80;44.60;;;;;;837237;23;1056;-86
2022/07/27 01:07:31;;;;;;;;;;;31.80;44.00;;;;;;840435;23;1443;-86
2022/07/27 01:07:52;;;;;;;;;;;31.80;43.80;;;;;;844570;23;872;-86
2022/07/27 01:08:13;;;;;;;;;;;31.80;44.30;;;;;;840451;23;1284;-86
2022/07/27 01:08:33;;;;;;;;;;;31.80;44.10;;;;;;836503;23;1209;-86
2022/07/27 01:10:13;;;;;;;;;;;31.80;45.00;;;;;;844392;23;581;-86
2022/07/27 01:10:34;;;;;;;;;;;31.80;44.30;;;;;;843699;23;1155;-86
2022/07/27 01:10:55;;;;;;;;;;;31.80;43.90;;;;;;844453;23;1123;-88
2022/07/27 01:11:16;;;;;;;;;;;31.80;43.90;;;;;;840355;23;1497;-86
2022/07/27 01:11:37;;;;;;;;;;;31.80;44.50;;;;;;840497;23;1173;-87
2022/07/27 01:11:58;;;;;;;;;;;31.80;43.50;;;;;;840420;23;874;-86
2022/07/27 01:12:19;;;;;;;;;;;31.80;44.30;;;;;;841516;23;1192;-84
2022/07/27 01:12:40;;;;;;;;;;;31.80;43.60;;;;;;845446;23;802;-85
2022/07/27 01:13:01;;;;;;;;;;;31.80;44.50;;;;;;848551;23;1368;-85
2022/07/27 01:13:22;;;;;;;;;;;31.80;43.70;;;;;;844516;23;1375;-85
2022/07/27 01:13:43;;;;;;;;;;;31.80;42.50;;;;;;844554;23;1347;-86
2022/07/27 01:14:04;;;;;;;;;;;31.70;44.90;;;;;;845367;23;1333;-84
2022/07/27 01:14:24;;;;;;;;;;;31.80;44.60;;;;;;848560;23;770;-85
2022/07/27 01:14:46;;;;;;;;;;;31.70;42.60;;;;;;848422;23;1419;-87
2022/07/27 01:15:06;;;;;;;;;;;31.70;42.30;;;;;;848481;23;1077;-84
2022/07/27 01:15:27;;;;;;;;;;;31.80;46.00;;;;;;843937;23;1302;-86
2022/07/27 01:15:48;;;;;;;;;;;31.80;44.60;;;;;;844952;23;1088;-86
2022/07/27 01:16:08;;;;;;;;;;;31.80;43.20;;;;;;844423;23;1157;-87
2022/07/27 01:16:29;;;;;;;;;;;31.70;45.10;;;;;;843892;23;976;-85
2022/07/27 01:16:52;;;;;;;;;;;31.80;44.20;;;;;;840311;23;1897;-84
2022/07/27 01:17:13;;;;;;;;;;;31.50;43.30;;;;;;837349;23;1224;-87
2022/07/27 01:17:34;;;;;;;;;;;31.70;42.60;;;;;;837579;23;1210;-84
2022/07/27 01:17:54;;;;;;;;;;;31.80;44.30;;;;;;841420;23;1311;-87
2022/07/27 01:18:28;;;;;;;;;;;31.80;43.70;;;;;;840388;23;1211;-87
2022/07/27 01:18:49;;;;;;;;;;;31.80;43.40;;;;;;837095;23;929;-86
2022/07/27 01:19:09;;;;;;;;;;;31.80;44.40;;;;;;839553;23;1323;-85
2022/07/27 01:19:30;;;;;;;;;;;31.70;42.40;;;;;;839470;23;1300;-85
2022/07/27 01:19:51;;;;;;;;;;;31.70;42.40;;;;;;843524;23;1307;-86
2022/07/27 01:20:11;;;;;;;;;;;31.80;43.60;;;;;;844610;23;770;-86
2022/07/27 01:20:32;;;;;;;;;;;31.80;44.10;;;;;;844385;23;877;-85
2022/07/27 01:20:53;;;;;;;;;;;31.70;42.30;;;;;;840382;23;885;-85
2022/07/27 01:21:14;;;;;;;;;;;31.70;44.00;;;;;;844488;23;802;-85
2022/07/27 01:21:35;;;;;;;;;;;31.80;43.70;;;;;;840487;23;1255;-87
2022/07/27 01:21:55;;;;;;;;;;;31.80;43.50;;;;;;840597;23;1251;-85
2022/07/27 01:22:16;;;;;;;;;;;31.80;43.80;;;;;;837137;23;1184;-84
2022/07/27 01:22:37;;;;;;;;;;;31.80;43.60;;;;;;837019;23;1169;-86
2022/07/27 01:22:57;;;;;;;;;;;31.80;44.20;;;;;;840635;23;850;-86
2022/07/27 01:23:18;;;;;;;;;;;31.80;44.70;;;;;;836149;23;1369;-83
2022/07/27 01:23:39;;;;;;;;;;;31.80;43.70;;;;;;832973;23;1222;-84
2022/07/27 01:23:59;;;;;;;;;;;31.70;43.60;;;;;;832898;23;1300;-85
2022/07/27 01:24:20;;;;;;;;;;;31.80;43.80;;;;;;836839;23;894;-85
2022/07/27 01:24:40;;;;;;;;;;;31.70;43.50;;;;;;836477;23;1201;-85
2022/07/27 01:25:01;;;;;;;;;;;31.70;43.40;;;;;;836920;23;1092;-85
2022/07/27 01:25:22;;;;;;;;;;;31.80;44.20;;;;;;840763;23;787;-86
2022/07/27 01:25:42;;;;;;;;;;;31.70;43.50;;;;;;845073;23;893;-85
2022/07/27 01:26:04;;;;;;;;;;;31.70;43.60;;;;;;849011;23;758;-85
2022/07/27 01:26:24;;;;;;;;;;;31.70;43.90;;;;;;848598;23;790;-87
2022/07/27 01:26:45;;;;;;;;;;;31.70;43.60;;;;;;844535;23;1323;-86
2022/07/27 01:27:06;;;;;;;;;;;31.70;43.40;;;;;;845135;23;877;-86
2022/07/27 01:27:27;;;;;;;;;;;31.70;43.60;;;;;;848438;23;1309;-85
2022/07/27 01:27:47;;;;;;;;;;;31.80;44.30;;;;;;843957;23;909;-85
2022/07/27 01:28:08;;;;;;;;;;;31.70;44.00;;;;;;844613;23;849;-86
2022/07/27 01:28:29;;;;;;;;;;;31.70;43.60;;;;;;845121;23;865;-86
2022/07/27 01:28:55;;;;;;;;;;;31.70;43.80;;;;;;844628;23;1304;-86
2022/07/27 01:29:15;;;;;;;;;;;31.70;43.30;;;;;;844530;23;885;-86
2022/07/27 01:29:36;;;;;;;;;;;31.70;42.30;;;;;;842008;23;1348;-86
2022/07/27 01:29:56;;;;;;;;;;;31.70;42.30;;;;;;840509;23;740;-86
2022/07/27 01:30:26;;;;;;;;;;;31.70;45.20;;;;;;840576;23;841;-86
2022/07/27 01:30:46;;;;;;;;;;;31.70;44.00;;;;;;843186;23;1495;-86
2022/07/27 01:31:07;;;;;;;;;;;31.70;44.10;;;;;;844475;23;1092;-86
2022/07/27 01:31:27;;;;;;;;;;;31.70;44.30;;;;;;842453;23;1521;-86
2022/07/27 01:31:48;;;;;;;;;;;31.70;43.80;;;;;;844555;23;826;-86
2022/07/27 01:32:09;;;;;;;;;;;31.70;44.50;;;;;;840548;23;822;-86
2022/07/27 01:32:29;;;;;;;;;;;31.70;44.00;;;;;;840739;23;1374;-86
2022/07/27 01:32:50;;;;;;;;;;;31.70;43.50;;;;;;840548;23;1330;-84
2022/07/27 01:33:10;;;;;;;;;;;31.70;42.30;;;;;;841088;23;952;-86
2022/07/27 01:33:31;;;;;;;;;;;31.70;43.60;;;;;;840425;23;1102;-85
2022/07/27 01:33:52;;;;;;;;;;;31.70;43.50;;;;;;840387;23;1449;-86
2022/07/27 01:34:12;;;;;;;;;;;32.00;44.00;;;;;;840837;23;1379;-85
2022/07/27 01:34:33;;;;;;;;;;;31.70;42.30;;;;;;844283;23;1329;-87
2022/07/27 01:34:54;;;;;;;;;;;31.70;43.80;;;;;;844724;23;770;-85
2022/07/27 01:35:14;;;;;;;;;;;31.70;43.50;;;;;;844858;23;1257;-87
2022/07/27 01:35:36;;;;;;;;;;;31.70;43.40;;;;;;844367;23;1449;-86
2022/07/27 01:35:57;;;;;;;;;;;31.70;43.60;;;;;;845271;23;1362;-83
2022/07/27 01:36:18;;;;;;;;;;;31.70;43.80;;;;;;847983;23;751;-88
2022/07/27 01:36:38;;;;;;;;;;;31.70;47.40;;;;;;840592;23;1113;-89
2022/07/27 01:37:03;;;;;;;;;;;31.70;47.60;;;;;;836457;23;1935;-89
2022/07/27 01:37:23;;;;;;;;;;;31.70;44.90;;;;;;838068;23;1075;-91
2022/07/27 01:37:44;;;;;;;;;;;31.80;47.30;;;;;;844525;23;1178;-90
2022/07/27 01:38:06;;;;;;;;;;;31.80;49.60;;;;;;840571;23;1292;-86
2022/07/27 01:38:26;;;;;;;;;;;31.70;43.70;;;;;;841892;23;1338;-87
2022/07/27 01:38:47;;;;;;;;;;;31.70;43.70;;;;;;841732;23;1428;-86
2022/07/27 01:39:07;;;;;;;;;;;31.70;45.40;;;;;;839794;23;1246;-87
2022/07/27 01:39:28;;;;;;;;;;;31.70;43.60;;;;;;836608;23;893;-87
2022/07/27 01:39:49;;;;;;;;;;;31.70;43.40;;;;;;841180;23;821;-85
2022/07/27 01:40:10;;;;;;;;;;;31.70;44.20;;;;;;840579;23;1189;-86
2022/07/27 01:40:30;;;;;;;;;;;31.70;43.40;;;;;;840977;23;1176;-86
2022/07/27 01:40:52;;;;;;;;;;;31.70;45.10;;;;;;845095;23;1194;-87
2022/07/27 01:41:12;;;;;;;;;;;31.70;43.40;;;;;;848581;23;1036;-87
2022/07/27 01:41:33;;;;;;;;;;;31.70;44.40;;;;;;844528;23;1054;-86
2022/07/27 01:41:54;;;;;;;;;;;31.80;44.00;;;;;;845207;23;1196;-87
2022/07/27 01:42:15;;;;;;;;;;;31.70;43.60;;;;;;848674;23;777;-88
2022/07/27 01:42:35;;;;;;;;;;;31.70;45.10;;;;;;848648;23;1342;-87
2022/07/27 01:42:56;;;;;;;;;;;31.70;46.10;;;;;;844670;23;1246;-88
2022/07/27 01:43:17;;;;;;;;;;;31.90;44.80;;;;;;844394;23;1435;-88
2022/07/27 01:43:38;;;;;;;;;;;31.70;46.10;;;;;;844528;23;1540;-88
2022/07/27 01:43:58;;;;;;;;;;;31.70;46.10;;;;;;844459;23;1392;-88
2022/07/27 01:44:19;;;;;;;;;;;31.70;47.10;;;;;;845070;23;1177;-88
2022/07/27 01:44:39;;;;;;;;;;;31.70;48.80;;;;;;844913;23;1361;-88
2022/07/27 01:45:00;;;;;;;;;;;31.70;42.20;;;;;;844037;23;1320;-88
2022/07/27 01:45:20;;;;;;;;;;;31.70;47.10;;;;;;840429;23;1356;-88
2022/07/27 01:45:41;;;;;;;;;;;31.70;47.10;;;;;;837045;23;1233;-89
2022/07/27 01:46:02;;;;;;;;;;;31.70;42.20;;;;;;840018;23;1284;-87
2022/07/27 01:46:23;;;;;;;;;;;31.70;43.60;;;;;;836972;23;1207;-87
2022/07/27 01:46:44;;;;;;;;;;;31.70;44.30;;;;;;836888;23;822;-86
2022/07/27 01:47:04;;;;;;;;;;;31.70;44.80;;;;;;835951;23;1222;-87
2022/07/27 01:47:25;;;;;;;;;;;31.70;44.00;;;;;;837068;23;840;-88
2022/07/27 01:47:46;;;;;;;;;;;31.70;42.20;;;;;;841181;23;802;-87
2022/07/27 01:48:08;;;;;;;;;;;31.70;43.80;;;;;;844630;23;774;-87
2022/07/27 01:48:29;;;;;;;;;;;29.90;42.10;;;;;;845455;23;854;-87
2022/07/27 01:48:49;;;;;;;;;;;31.70;45.00;;;;;;844443;23;1239;-87
2022/07/27 01:49:10;;;;;;;;;;;31.70;46.10;;;;;;841378;23;1259;-88
2022/07/27 01:49:30;;;;;;;;;;;31.70;45.90;;;;;;840500;23;1227;-88
2022/07/27 01:49:51;;;;;;;;;;;31.60;45.30;;;;;;836426;23;1199;-88
2022/07/27 01:50:12;;;;;;;;;;;31.70;42.20;;;;;;836465;23;1381;-88
2022/07/27 01:50:33;;;;;;;;;;;32.10;42.60;;;;;;836074;23;1103;-88
2022/07/27 01:50:53;;;;;;;;;;;31.70;47.90;;;;;;833292;23;1290;-88
2022/07/27 01:51:14;;;;;;;;;;;31.80;50.70;;;;;;832508;23;1297;-89
2022/07/27 01:51:35;;;;;;;;;;;31.90;48.40;;;;;;832553;23;1204;-89
2022/07/27 01:51:55;;;;;;;;;;;31.70;45.60;;;;;;829167;23;1207;-88
2022/07/27 01:52:16;;;;;;;;;;;31.70;45.50;;;;;;829195;23;1323;-89
2022/07/27 01:52:38;;;;;;;;;;;31.70;42.10;;;;;;833059;23;883;-88
2022/07/27 01:52:58;;;;;;;;;;;31.70;42.20;;;;;;837104;23;1073;-88
2022/07/27 01:53:19;;;;;;;;;;;31.70;44.10;;;;;;836984;23;919;-87
2022/07/27 01:53:40;;;;;;;;;;;31.70;43.30;;;;;;837427;23;1141;-88
2022/07/27 01:54:00;;;;;;;;;;;31.70;44.50;;;;;;836280;23;1453;-87
2022/07/27 01:54:21;;;;;;;;;;;31.70;42.20;;;;;;836503;23;1425;-88
2022/07/27 01:54:42;;;;;;;;;;;31.70;45.30;;;;;;832973;23;1077;-88
2022/07/27 01:55:02;;;;;;;;;;;31.70;43.90;;;;;;836968;23;1535;-88
2022/07/27 01:55:23;;;;;;;;;;;31.70;44.40;;;;;;836544;23;1385;-87
2022/07/27 01:55:43;;;;;;;;;;;31.70;44.90;;;;;;836896;23;1297;-88
2022/07/27 01:56:08;;;;;;;;;;;31.70;42.20;;;;;;840442;23;1270;-88
2022/07/27 01:56:28;;;;;;;;;;;31.70;44.10;;;;;;841645;23;1488;-88
2022/07/27 01:56:50;;;;;;;;;;;31.70;46.00;;;;;;839333;23;1199;-88
2022/07/27 01:57:10;;;;;;;;;;;31.70;44.60;;;;;;837793;23;1147;-88
2022/07/27 01:57:31;;;;;;;;;;;31.70;44.00;;;;;;836609;23;1185;-88
2022/07/27 01:57:51;;;;;;;;;;;31.70;44.00;;;;;;841804;23;1471;-88
2022/07/27 01:58:12;;;;;;;;;;;31.70;44.80;;;;;;840494;23;1223;-88
2022/07/27 01:58:33;;;;;;;;;;;31.70;43.80;;;;;;841233;23;771;-88
2022/07/27 01:58:54;;;;;;;;;;;31.70;45.90;;;;;;840358;23;1373;-88
2022/07/27 01:59:14;;;;;;;;;;;31.90;47.70;;;;;;840918;23;790;-89
2022/07/27 01:59:35;;;;;;;;;;;31.70;45.10;;;;;;840423;23;1189;-88
2022/07/27 01:59:55;;;;;;;;;;;31.70;45.70;;;;;;840939;23;1245;-87
2022/07/27 02:00:16;;;;;;;;;;;31.70;42.10;;;;;;839949;23;1080;-88
2022/07/27 02:00:37;;;;;;;;;;;31.70;42.20;;;;;;836763;23;1422;-88
2022/07/27 02:00:57;;;;;;;;;;;31.70;42.90;;;;;;836255;23;1281;-88
2022/07/27 02:01:18;;;;;;;;;;;31.70;44.40;;;;;;836439;23;1234;-88
2022/07/27 02:01:38;;;;;;;;;;;27.70;42.00;;;;;;837025;23;1358;-87
2022/07/27 02:01:59;;;;;;;;;;;30.60;41.40;;;;;;836804;23;1098;-88
2022/07/27 02:02:20;;;;;;;;;;;31.70;42.10;;;;;;836527;23;1195;-88
2022/07/27 02:02:40;;;;;;;;;;;31.70;43.60;;;;;;836895;23;830;-87
2022/07/27 02:03:01;;;;;;;;;;;31.70;44.20;;;;;;836306;23;1086;-88
2022/07/27 02:03:22;;;;;;;;;;;31.70;43.20;;;;;;836949;23;827;-87
2022/07/27 02:03:42;;;;;;;;;;;31.70;43.80;;;;;;836961;23;1111;-88
2022/07/27 02:04:03;;;;;;;;;;;31.70;45.00;;;;;;840489;23;1387;-88
2022/07/27 02:04:23;;;;;;;;;;;31.60;42.10;;;;;;841040;23;1355;-87
2022/07/27 02:04:44;;;;;;;;;;;31.70;42.20;;;;;;840881;23;1254;-86
2022/07/27 02:05:05;;;;;;;;;;;31.60;44.70;;;;;;840309;23;1066;-88
2022/07/27 02:05:25;;;;;;;;;;;31.40;42.60;;;;;;840897;23;1240;-87
2022/07/27 02:05:46;;;;;;;;;;;31.70;43.90;;;;;;839946;23;1239;-88
2022/07/27 02:06:07;;;;;;;;;;;31.70;43.60;;;;;;832989;23;768;-87
2022/07/27 02:06:28;;;;;;;;;;;31.70;44.40;;;;;;837276;23;1084;-88
2022/07/27 02:06:49;;;;;;;;;;;31.70;42.20;;;;;;841372;23;1144;-88
2022/07/27 02:07:10;;;;;;;;;;;31.70;43.40;;;;;;840650;23;1208;-87